createdAt,value
2023-03-29T00:00:14.095Z,54.28
2023-03-29T00:02:42.003Z,55.45
2023-03-29T00:05:09.617Z,54.96
2023-03-29T00:07:36.873Z,55.79
2023-03-29T00:10:04.791Z,55.48
2023-03-29T00:12:32.312Z,55.43
2023-03-29T00:14:59.645Z,56.08
2023-03-29T00:17:26.930Z,57.75
2023-03-29T00:19:54.278Z,58.56
2023-03-29T00:22:22.007Z,60.15
2023-03-29T00:24:49.476Z,59.84
2023-03-29T00:27:16.812Z,60.52
2023-03-29T00:29:44.223Z,61.35
2023-03-29T00:32:11.538Z,62.00
2023-03-29T00:34:38.922Z,62.46
2023-03-29T00:37:09.326Z,62.73
2023-03-29T00:39:36.897Z,61.58
2023-03-29T00:42:04.176Z,62.98
2023-03-29T00:44:53.225Z,63.11
2023-03-29T00:47:30.258Z,62.94
2023-03-29T00:50:03.286Z,62.93
2023-03-29T00:52:32.126Z,63.03
2023-03-29T00:55:01.582Z,63.71
2023-03-29T00:57:30.125Z,64.07
2023-03-29T00:59:57.573Z,63.26
2023-03-29T01:02:26.182Z,62.56
2023-03-29T01:05:15.159Z,62.12
2023-03-29T01:07:48.123Z,63.97
2023-03-29T01:10:42.681Z,63.97
2023-03-29T01:13:39.409Z,63.67
2023-03-29T01:16:08.327Z,63.46
2023-03-29T01:18:35.728Z,64.49
2023-03-29T01:21:23.553Z,64.50
2023-03-29T01:23:58.374Z,64.75
2023-03-29T01:26:34.060Z,62.73
2023-03-29T01:29:25.842Z,63.19
2023-03-29T01:31:57.917Z,63.67
2023-03-29T01:34:44.767Z,62.92
2023-03-29T01:37:25.023Z,63.11
2023-03-29T01:39:52.535Z,63.28
2023-03-29T01:42:22.938Z,62.62
2023-03-29T01:45:09.941Z,62.68
2023-03-29T01:47:55.203Z,61.56
2023-03-29T01:50:45.292Z,60.42
2023-03-29T01:53:35.751Z,60.91
2023-03-29T01:56:07.816Z,60.92
2023-03-29T01:58:38.335Z,62.59
2023-03-29T02:01:10.001Z,62.47
2023-03-29T02:03:42.567Z,62.20
2023-03-29T02:06:11.256Z,63.25
2023-03-29T02:08:39.471Z,61.06
2023-03-29T02:11:07.714Z,62.00
2023-03-29T02:13:35.893Z,62.31
2023-03-29T02:16:12.200Z,61.77
2023-03-29T02:18:41.227Z,62.08
2023-03-29T02:21:08.548Z,62.56
2023-03-29T02:23:41.157Z,62.64
2023-03-29T02:26:08.961Z,61.63
2023-03-29T02:28:36.236Z,62.55
2023-03-29T02:31:26.173Z,61.38
2023-03-29T02:34:00.916Z,61.92
2023-03-29T02:36:46.789Z,61.76
2023-03-29T02:39:15.747Z,62.54
2023-03-29T02:41:45.218Z,62.75
2023-03-29T02:44:14.197Z,64.97
2023-03-29T02:46:43.944Z,66.19
2023-03-29T02:49:12.547Z,65.66
2023-03-29T02:51:39.855Z,65.78
2023-03-29T02:54:13.362Z,65.69
2023-03-29T02:56:45.070Z,65.53
2023-03-29T02:59:12.679Z,66.71
2023-03-29T03:01:42.839Z,66.64
2023-03-29T03:04:10.235Z,66.94
2023-03-29T03:06:40.410Z,67.12
2023-03-29T03:09:10.591Z,66.24
2023-03-29T03:11:41.016Z,67.34
2023-03-29T03:14:08.493Z,67.56
2023-03-29T03:16:37.114Z,68.10
2023-03-29T03:19:04.702Z,69.42
2023-03-29T03:21:31.966Z,69.79
2023-03-29T03:24:00.349Z,68.87
2023-03-29T03:26:30.334Z,68.48
2023-03-29T03:28:58.318Z,69.38
2023-03-29T03:31:59.304Z,69.83
2023-03-29T03:34:55.478Z,69.81
2023-03-29T03:37:25.504Z,69.40
2023-03-29T03:39:53.608Z,69.80
2023-03-29T03:42:21.611Z,69.91
2023-03-29T03:44:49.808Z,70.32
2023-03-29T03:47:43.292Z,70.15
2023-03-29T03:50:23.091Z,70.86
2023-03-29T03:52:50.375Z,70.85
2023-03-29T03:55:17.860Z,70.78
2023-03-29T03:57:52.622Z,70.93
2023-03-29T04:00:21.414Z,70.51
2023-03-29T04:03:08.854Z,70.56
2023-03-29T04:05:44.614Z,71.71
2023-03-29T04:08:12.608Z,71.48
2023-03-29T04:11:07.444Z,71.92
2023-03-29T04:13:37.744Z,72.29
2023-03-29T04:16:34.098Z,71.25
2023-03-29T04:19:16.237Z,72.36
2023-03-29T04:21:46.133Z,73.45
2023-03-29T04:24:13.630Z,72.72
2023-03-29T04:26:44.659Z,73.42
2023-03-29T04:29:19.529Z,73.33
2023-03-29T04:31:51.000Z,72.83
2023-03-29T04:34:47.482Z,73.23
2023-03-29T04:37:16.395Z,73.07
2023-03-29T04:39:44.824Z,72.45
2023-03-29T04:42:13.978Z,71.85
2023-03-29T04:44:43.528Z,71.87
2023-03-29T04:47:13.280Z,71.92
2023-03-29T04:50:08.230Z,70.81
2023-03-29T04:52:41.478Z,71.54
2023-03-29T04:55:09.379Z,71.51
2023-03-29T04:57:50.341Z,71.30
2023-03-29T05:00:21.290Z,70.90
2023-03-29T05:03:14.701Z,70.32
2023-03-29T05:06:06.697Z,70.34
2023-03-29T05:08:35.574Z,70.02
2023-03-29T05:11:13.620Z,68.88
2023-03-29T05:13:42.619Z,68.45
2023-03-29T05:16:11.204Z,67.77
2023-03-29T05:18:39.571Z,67.64
2023-03-29T05:21:07.638Z,67.35
2023-03-29T05:23:36.562Z,66.79
2023-03-29T05:26:32.636Z,66.87
2023-03-29T05:28:59.953Z,66.67
2023-03-29T05:31:28.294Z,66.17
2023-03-29T05:33:56.686Z,66.00
2023-03-29T05:36:24.834Z,65.51
2023-03-29T05:38:52.260Z,65.40
2023-03-29T05:41:21.527Z,65.20
2023-03-29T05:44:03.618Z,64.64
2023-03-29T05:46:31.859Z,63.92
2023-03-29T05:49:02.989Z,62.71
2023-03-29T05:52:02.504Z,62.87
2023-03-29T05:54:31.577Z,60.88
2023-03-29T05:56:59.676Z,60.39
2023-03-29T05:59:28.670Z,61.75
2023-03-29T06:01:56.665Z,61.74
2023-03-29T06:04:25.420Z,60.86
2023-03-29T06:07:12.688Z,60.86
2023-03-29T06:09:44.765Z,60.21
2023-03-29T06:12:12.377Z,59.57
2023-03-29T06:14:45.657Z,58.70
2023-03-29T06:17:25.481Z,58.33
2023-03-29T06:19:53.570Z,56.85
2023-03-29T06:22:24.477Z,56.34
2023-03-29T06:24:52.225Z,55.02
2023-03-29T06:27:25.856Z,54.72
2023-03-29T06:29:54.039Z,53.18
2023-03-29T06:32:21.426Z,52.42
2023-03-29T06:34:57.702Z,50.05
2023-03-29T06:37:49.475Z,50.63
2023-03-29T06:40:23.028Z,50.70
2023-03-29T06:42:51.028Z,50.90
2023-03-29T06:45:37.286Z,49.85
2023-03-29T06:48:08.967Z,52.27
2023-03-29T06:50:38.501Z,51.00
2023-03-29T06:53:11.590Z,48.22
2023-03-29T06:55:40.272Z,47.39
2023-03-29T06:58:26.178Z,49.93
2023-03-29T07:00:53.980Z,47.48
2023-03-29T07:03:30.468Z,45.53
2023-03-29T07:06:04.349Z,45.40
2023-03-29T07:08:35.234Z,43.87
2023-03-29T07:11:07.198Z,40.36
2023-03-29T07:13:56.378Z,39.83
2023-03-29T07:16:24.274Z,41.95
2023-03-29T07:19:25.281Z,41.62
2023-03-29T07:21:55.216Z,42.75
2023-03-29T07:24:31.028Z,42.30
2023-03-29T07:27:04.273Z,41.51
2023-03-29T07:29:33.206Z,40.69
2023-03-29T07:32:00.967Z,40.36
2023-03-29T07:34:43.392Z,40.31
2023-03-29T07:37:19.281Z,40.17
2023-03-29T07:39:47.337Z,40.15
2023-03-29T07:42:32.030Z,39.55
2023-03-29T07:45:00.041Z,38.94
2023-03-29T07:47:33.153Z,39.52
2023-03-29T07:50:00.942Z,39.43
2023-03-29T07:52:30.013Z,38.54
2023-03-29T07:54:58.078Z,38.16
2023-03-29T07:57:32.949Z,41.96
2023-03-29T08:00:00.476Z,41.71
2023-03-29T08:02:44.703Z,41.56
2023-03-29T08:05:13.715Z,42.14
2023-03-29T08:07:52.320Z,41.83
2023-03-29T08:10:27.915Z,40.17
2023-03-29T08:13:09.897Z,40.90
2023-03-29T08:15:48.776Z,40.24
2023-03-29T08:18:35.866Z,40.48
2023-03-29T08:21:05.069Z,39.17
2023-03-29T08:23:32.828Z,40.07
2023-03-29T08:26:26.746Z,39.68
2023-03-29T08:28:55.462Z,38.88
2023-03-29T08:31:24.240Z,39.05
2023-03-29T08:33:53.266Z,39.74
2023-03-29T08:36:40.343Z,38.58
2023-03-29T08:39:26.022Z,38.87
2023-03-29T08:42:38.132Z,37.97
2023-03-29T08:45:15.497Z,37.70
2023-03-29T08:48:21.256Z,37.51
2023-03-29T08:51:01.711Z,37.17
2023-03-29T08:53:35.666Z,36.79
2023-03-29T08:56:16.949Z,37.41
2023-03-29T08:59:02.623Z,37.84
2023-03-29T09:01:35.402Z,38.20
2023-03-29T09:04:18.954Z,37.90
2023-03-29T09:07:09.445Z,37.74
2023-03-29T09:09:42.289Z,37.70
2023-03-29T09:12:26.165Z,36.81
2023-03-29T09:14:59.313Z,37.05
2023-03-29T09:17:32.602Z,36.74
2023-03-29T09:20:21.981Z,36.13
2023-03-29T09:23:10.627Z,36.03
2023-03-29T09:26:10.024Z,36.47
2023-03-29T09:29:07.121Z,35.71
2023-03-29T09:31:39.141Z,34.32
2023-03-29T09:34:19.814Z,34.38
2023-03-29T09:37:11.269Z,33.71
2023-03-29T09:39:41.078Z,33.13
2023-03-29T09:42:12.742Z,33.77
2023-03-29T09:44:57.341Z,33.09
2023-03-29T09:47:43.545Z,32.97
2023-03-29T09:50:29.692Z,33.28
2023-03-29T09:52:59.637Z,32.84
2023-03-29T09:55:30.441Z,32.77
2023-03-29T09:58:14.366Z,32.36
2023-03-29T10:00:46.185Z,31.62
2023-03-29T10:03:21.229Z,30.63
2023-03-29T10:06:02.815Z,30.95
2023-03-29T10:08:35.721Z,29.70
2023-03-29T10:11:09.629Z,29.81
2023-03-29T10:13:37.245Z,29.88
2023-03-29T10:16:07.377Z,27.88
2023-03-29T10:18:43.926Z,28.16
2023-03-29T10:21:15.814Z,26.18
2023-03-29T10:23:43.915Z,27.14
2023-03-29T10:26:25.193Z,25.98
2023-03-29T10:28:53.974Z,24.80
2023-03-29T10:31:22.405Z,24.47
2023-03-29T10:33:57.487Z,24.93
2023-03-29T10:36:30.780Z,23.61
2023-03-29T10:38:59.288Z,22.54
2023-03-29T10:41:27.332Z,22.20
2023-03-29T10:43:54.596Z,21.91
2023-03-29T10:46:23.606Z,22.60
2023-03-29T10:48:52.609Z,23.87
2023-03-29T10:51:19.878Z,22.85
2023-03-29T10:53:47.633Z,22.91
2023-03-29T10:56:33.422Z,22.00
2023-03-29T10:59:18.944Z,21.77
2023-03-29T11:02:14.294Z,21.27
2023-03-29T11:04:59.245Z,21.45
2023-03-29T11:07:29.834Z,20.71
2023-03-29T11:10:03.276Z,20.96
2023-03-29T11:13:08.583Z,21.08
2023-03-29T11:16:00.891Z,20.35
2023-03-29T11:19:09.270Z,20.88
2023-03-29T11:21:51.173Z,20.23
2023-03-29T11:24:30.509Z,20.28
2023-03-29T11:27:00.438Z,19.34
2023-03-29T11:29:30.624Z,19.01
2023-03-29T11:31:57.784Z,19.95
2023-03-29T11:34:25.356Z,19.71
2023-03-29T11:37:11.267Z,19.53
2023-03-29T11:39:41.713Z,20.05
2023-03-29T11:42:20.786Z,20.02
2023-03-29T11:44:48.452Z,21.12
2023-03-29T11:47:18.984Z,20.47
2023-03-29T11:49:54.567Z,20.09
2023-03-29T11:52:51.526Z,20.04
2023-03-29T11:55:19.617Z,19.43
2023-03-29T11:57:52.877Z,18.37
2023-03-29T12:00:37.748Z,18.40
2023-03-29T12:03:28.476Z,16.88
2023-03-29T12:06:08.475Z,17.15
2023-03-29T12:08:40.355Z,17.35
2023-03-29T12:11:08.858Z,16.25
2023-03-29T12:13:45.166Z,16.10
2023-03-29T12:16:24.221Z,15.99
2023-03-29T12:18:54.535Z,15.46
2023-03-29T12:21:23.916Z,15.42
2023-03-29T12:23:52.711Z,16.15
2023-03-29T12:26:56.332Z,16.77
2023-03-29T12:29:51.089Z,16.98
2023-03-29T12:32:43.862Z,16.77
2023-03-29T12:35:34.358Z,15.44
2023-03-29T12:38:27.098Z,16.71
2023-03-29T12:41:21.752Z,16.82
2023-03-29T12:44:11.633Z,17.65
2023-03-29T12:47:03.044Z,17.04
2023-03-29T12:49:36.497Z,17.56
2023-03-29T12:52:23.317Z,17.96
2023-03-29T12:54:59.710Z,18.92
2023-03-29T12:57:44.633Z,19.35
2023-03-29T13:00:27.507Z,19.01
2023-03-29T13:03:03.810Z,19.19
2023-03-29T13:05:35.236Z,19.22
2023-03-29T13:08:38.804Z,19.26
2023-03-29T13:11:06.560Z,18.92
2023-03-29T13:13:37.425Z,19.21
2023-03-29T13:16:12.472Z,19.27
2023-03-29T13:19:03.112Z,19.89
2023-03-29T13:21:56.042Z,19.95
2023-03-29T13:24:23.223Z,19.54
2023-03-29T13:27:04.352Z,19.48
2023-03-29T13:29:55.748Z,18.84
2023-03-29T13:32:55.419Z,18.75
2023-03-29T13:35:44.508Z,19.70
2023-03-29T13:38:19.697Z,18.91
2023-03-29T13:41:01.489Z,18.79
2023-03-29T13:43:44.616Z,19.41
2023-03-29T13:46:34.938Z,18.95
2023-03-29T13:49:17.666Z,19.30
2023-03-29T13:52:08.975Z,19.19
2023-03-29T13:54:42.773Z,19.04
2023-03-29T13:57:17.243Z,18.94
2023-03-29T13:59:55.725Z,18.39
2023-03-29T14:02:31.661Z,15.38
2023-03-29T14:05:00.055Z,15.82
2023-03-29T14:07:27.422Z,15.98
2023-03-29T14:09:55.084Z,15.47
2023-03-29T14:12:22.355Z,15.31
2023-03-29T14:14:58.731Z,15.74
2023-03-29T14:17:26.815Z,14.71
2023-03-29T14:19:54.049Z,15.03
2023-03-29T14:22:21.506Z,14.92
2023-03-29T14:24:53.232Z,13.26
2023-03-29T14:27:21.370Z,12.30
2023-03-29T14:29:49.809Z,11.76
2023-03-29T14:32:19.003Z,12.14
2023-03-29T14:34:49.872Z,12.88
2023-03-29T14:37:26.265Z,12.99
2023-03-29T14:39:53.692Z,13.29
2023-03-29T14:42:24.287Z,13.34
2023-03-29T14:44:51.777Z,13.38
2023-03-29T14:47:26.133Z,12.99
2023-03-29T14:49:56.091Z,12.92
2023-03-29T14:52:23.620Z,13.57
2023-03-29T14:54:52.573Z,13.55
2023-03-29T14:57:19.789Z,14.66
2023-03-29T14:59:54.823Z,19.03
2023-03-29T15:02:30.007Z,20.02
2023-03-29T15:04:59.190Z,20.33
2023-03-29T15:07:27.302Z,19.68
2023-03-29T15:09:55.814Z,20.73
2023-03-29T15:12:23.164Z,20.89
2023-03-29T15:14:51.592Z,20.52
2023-03-29T15:17:47.693Z,21.70
2023-03-29T15:20:53.298Z,21.91
2023-03-29T15:23:22.535Z,23.04
2023-03-29T15:25:58.535Z,24.27
2023-03-29T15:28:31.085Z,24.30
2023-03-29T15:33:35.871Z,24.49
2023-03-29T15:36:04.049Z,24.57
2023-03-29T15:38:42.628Z,25.19
2023-03-29T15:41:13.409Z,24.87
2023-03-29T15:43:41.418Z,24.89
2023-03-29T15:46:11.603Z,23.77
2023-03-29T15:48:38.906Z,23.53
2023-03-29T15:51:06.905Z,23.06
2023-03-29T15:53:35.627Z,24.26
2023-03-29T15:56:04.105Z,25.74
2023-03-29T15:58:31.922Z,26.04
2023-03-29T16:01:23.644Z,27.04
2023-03-29T16:03:51.349Z,27.31
2023-03-29T16:06:18.693Z,27.97
2023-03-29T16:08:46.195Z,29.00
2023-03-29T16:11:13.466Z,29.26
2023-03-29T16:13:40.818Z,30.33
2023-03-29T16:16:10.696Z,30.29
2023-03-29T16:18:38.072Z,31.29
2023-03-29T16:21:06.373Z,31.43
2023-03-29T16:23:33.623Z,32.53
2023-03-29T16:26:01.300Z,32.65
2023-03-29T16:28:28.698Z,32.65
2023-03-29T16:30:55.918Z,33.12
2023-03-29T16:33:23.182Z,33.28
2023-03-29T16:35:50.664Z,34.65
2023-03-29T16:38:17.974Z,34.78
2023-03-29T16:40:45.236Z,34.83
2023-03-29T16:43:16.196Z,34.90
2023-03-29T16:45:43.482Z,35.45
2023-03-29T16:48:18.064Z,36.00
2023-03-29T16:50:49.459Z,36.31
2023-03-29T16:53:18.615Z,36.83
2023-03-29T16:55:46.797Z,37.53
2023-03-29T16:58:15.530Z,37.35
2023-03-29T17:00:45.034Z,37.26
2023-03-29T17:03:13.865Z,37.25
2023-03-29T17:05:50.320Z,37.76
2023-03-29T17:08:18.475Z,38.67
2023-03-29T17:10:46.064Z,39.39
2023-03-29T17:13:13.370Z,39.33
2023-03-29T17:15:40.651Z,40.17
2023-03-29T17:18:08.045Z,40.50
2023-03-29T17:20:38.027Z,40.67
2023-03-29T17:23:05.325Z,41.28
2023-03-29T17:25:32.667Z,41.28
2023-03-29T17:27:59.937Z,41.39
2023-03-29T17:30:27.272Z,41.87
2023-03-29T17:32:55.264Z,42.57
2023-03-29T17:35:22.566Z,41.70
2023-03-29T17:37:49.797Z,41.14
2023-03-29T17:40:17.988Z,40.45
2023-03-29T17:42:48.762Z,40.69
2023-03-29T17:45:16.354Z,41.40
2023-03-29T17:47:43.652Z,42.16
2023-03-29T17:50:11.962Z,42.01
2023-03-29T17:52:39.715Z,41.90
2023-03-29T17:55:11.072Z,41.53
2023-03-29T17:57:39.003Z,41.99
2023-03-29T18:00:07.403Z,42.58
2023-03-29T18:02:34.764Z,42.42
2023-03-29T18:05:02.080Z,42.28
2023-03-29T18:07:29.398Z,43.52
2023-03-29T18:09:56.692Z,43.82
2023-03-29T18:12:27.708Z,43.57
2023-03-29T18:14:57.759Z,43.11
2023-03-29T18:17:26.563Z,44.12
2023-03-29T18:19:53.840Z,45.32
2023-03-29T18:22:21.624Z,45.34
2023-03-29T18:24:49.229Z,45.95
2023-03-29T18:27:17.113Z,43.32
2023-03-29T18:29:44.862Z,43.58
2023-03-29T18:32:12.305Z,44.07
2023-03-29T18:34:39.654Z,44.79
2023-03-29T18:37:07.480Z,45.42
2023-03-29T18:39:34.880Z,45.18
2023-03-29T18:42:02.234Z,45.08
2023-03-29T18:44:29.609Z,45.46
2023-03-29T18:46:56.879Z,46.65
2023-03-29T18:49:25.740Z,46.29
2023-03-29T18:51:54.368Z,46.78
2023-03-29T18:54:21.672Z,47.76
2023-03-29T18:56:48.930Z,48.29
2023-03-29T18:59:17.200Z,48.08
2023-03-29T19:01:44.595Z,47.87
2023-03-29T19:04:13.439Z,47.10
2023-03-29T19:06:41.775Z,47.33
2023-03-29T19:09:09.633Z,49.20
2023-03-29T19:11:37.002Z,47.99
2023-03-29T19:14:04.624Z,49.71
2023-03-29T19:16:32.176Z,47.27
2023-03-29T19:19:00.170Z,48.62
2023-03-29T19:21:28.996Z,48.15
2023-03-29T19:24:00.916Z,47.55
2023-03-29T19:26:33.237Z,48.57
2023-03-29T19:29:01.257Z,50.01
2023-03-29T19:31:28.651Z,49.53
2023-03-29T19:33:56.189Z,49.86
2023-03-29T19:36:24.005Z,50.59
2023-03-29T19:38:51.681Z,50.15
2023-03-29T19:41:18.976Z,50.34
2023-03-29T19:43:46.383Z,49.90
2023-03-29T19:46:15.788Z,50.83
2023-03-29T19:48:43.386Z,50.77
2023-03-29T19:51:10.841Z,51.55
2023-03-29T19:53:39.001Z,53.34
2023-03-29T19:56:07.815Z,53.69
2023-03-29T19:58:35.616Z,53.61
2023-03-29T20:01:03.186Z,53.77
2023-03-29T20:03:34.147Z,53.63
2023-03-29T20:06:01.979Z,53.03
2023-03-29T20:08:29.386Z,52.77
2023-03-29T20:10:59.916Z,53.54
2023-03-29T20:13:37.637Z,53.59
2023-03-29T20:16:10.889Z,54.11
2023-03-29T20:18:38.363Z,54.61
2023-03-29T20:21:08.915Z,55.43
2023-03-29T20:23:36.549Z,54.99
2023-03-29T20:26:03.890Z,55.64
2023-03-29T20:28:31.552Z,55.75
2023-03-29T20:31:02.924Z,55.44
2023-03-29T20:33:30.551Z,56.15
2023-03-29T20:35:58.035Z,55.54
2023-03-29T20:38:25.878Z,54.98
2023-03-29T20:40:53.617Z,55.79
2023-03-29T20:43:20.887Z,56.81
2023-03-29T20:45:54.034Z,57.76
2023-03-29T20:48:23.580Z,56.27
2023-03-29T20:50:51.399Z,55.81
2023-03-29T20:53:20.411Z,57.84
2023-03-29T20:55:47.894Z,56.99
2023-03-29T20:58:16.038Z,56.57
2023-03-29T21:00:43.790Z,56.90
2023-03-29T21:03:11.516Z,57.48
2023-03-29T21:05:39.085Z,57.59
2023-03-29T21:08:06.433Z,57.94
2023-03-29T21:10:33.778Z,58.90
2023-03-29T21:13:02.616Z,59.38
2023-03-29T21:15:31.221Z,58.42
2023-03-29T21:17:58.710Z,58.67
2023-03-29T21:20:27.575Z,58.94
2023-03-29T21:22:54.909Z,58.73
2023-03-29T21:25:22.357Z,60.08
2023-03-29T21:27:52.541Z,59.67
2023-03-29T21:30:19.832Z,60.15
2023-03-29T21:32:47.104Z,59.96
2023-03-29T21:35:14.352Z,60.56
2023-03-29T21:37:41.554Z,60.53
2023-03-29T21:40:10.736Z,60.88
2023-03-29T21:42:38.160Z,61.68
2023-03-29T21:45:05.944Z,62.30
2023-03-29T21:47:33.303Z,62.80
2023-03-29T21:50:00.543Z,62.70
2023-03-29T21:52:27.788Z,62.32
2023-03-29T21:54:55.128Z,63.45
2023-03-29T21:57:22.465Z,62.04
2023-03-29T21:59:49.808Z,62.03
2023-03-29T22:02:17.197Z,61.34
2023-03-29T22:04:44.517Z,61.74
2023-03-29T22:07:12.491Z,60.54
2023-03-29T22:09:42.350Z,60.71
2023-03-29T22:12:10.051Z,61.76
2023-03-29T22:14:37.478Z,61.94
2023-03-29T22:17:07.888Z,62.70
2023-03-29T22:19:39.150Z,62.23
2023-03-29T22:22:13.551Z,63.85
2023-03-29T22:24:42.015Z,63.46
2023-03-29T22:27:10.556Z,64.15
2023-03-29T22:29:37.927Z,64.50
2023-03-29T22:32:05.821Z,63.60
2023-03-29T22:34:33.392Z,63.43
2023-03-29T22:37:00.625Z,62.76
2023-03-29T22:39:28.578Z,63.85
2023-03-29T22:41:55.953Z,63.73
2023-03-29T22:44:23.239Z,63.33
2023-03-29T22:46:50.852Z,63.41
2023-03-29T22:49:18.089Z,64.17
2023-03-29T22:51:45.384Z,64.46
2023-03-29T22:54:12.686Z,64.08
2023-03-29T22:56:39.963Z,64.76
2023-03-29T22:59:07.289Z,65.19
2023-03-29T23:01:34.556Z,65.61
2023-03-29T23:04:01.961Z,66.61
2023-03-29T23:06:29.267Z,66.31
2023-03-29T23:08:56.512Z,66.44
2023-03-29T23:11:23.752Z,67.02
2023-03-29T23:13:51.076Z,67.56
2023-03-29T23:16:20.852Z,67.79
2023-03-29T23:18:48.356Z,66.83
2023-03-29T23:21:15.647Z,67.03
2023-03-29T23:23:43.455Z,66.59
2023-03-29T23:26:11.220Z,67.49
2023-03-29T23:28:38.475Z,66.54
2023-03-29T23:31:09.908Z,66.35
2023-03-29T23:33:41.443Z,66.87
2023-03-29T23:36:13.205Z,66.01
2023-03-29T23:38:40.531Z,65.46
2023-03-29T23:41:10.831Z,65.48
2023-03-29T23:43:40.493Z,67.04
2023-03-29T23:46:12.431Z,67.01
2023-03-29T23:48:39.729Z,67.35
2023-03-29T23:51:08.195Z,67.42
2023-03-29T23:53:35.467Z,67.18
2023-03-29T23:56:03.641Z,66.67
2023-03-29T23:58:32.765Z,67.32
